Jackson, MI

4:47 AM EDT on October 22, 2014 (GMT -0400)
Two Cat Studios | Change Station
CLOSE
Current Station
Personal Weather Station
Location: Jackson, MI
Elevation: 986 ft
Nearby Weather Stations

Elev 986 ft 42.26 °N, 84.43 °W | Updated 4 seconds ago

Overcast
Overcast
38.6 °F
Feels Like 39 °F
N
0.0
Wind Variable Wind from North
Gusts 3.1 mph

Today
High -- | Low -- °F
--% Chance of Precip.
Yesterday
High -- | Low -- °F
Precip. -- in
7:58 AM 6:44 PM
Waning Crescent, 2% visible
Pressure 30.28 in
Visibility 10.0 miles
Clouds Overcast 1700 ft
Windchill 39 °F
Dew Point 36 °F
Humidity 92%
Rainfall 0.00 in
Snow Depth Not available.
UV 0 out of 12
Pollen .30 out of 12
PM2.5 Good
Flu Activity Sporadic
METAR KJXN 220756Z VRB03KT 10SM OVC017 03/02 A3025 RMK AO2 SLP252 T00330017

More Conditions Fewer Conditions

Pressure 30.28 in
Visibility 10.0 miles
Clouds Overcast 1700 ft
Windchill 39 °F
Dew Point 36 °F
Humidity 92%
Rainfall 0.00 in
Snow Depth Not available.
UV 0 out of 12
Pollen .30 out of 12
PM2.5 Good
Flu Activity Sporadic
METAR KJXN 220756Z VRB03KT 10SM OVC017 03/02 A3025 RMK AO2 SLP252 T00330017

More Conditions Fewer Conditions

10-Day Weather Forecast

Almanac

Astronomy

Oct. 22, 2014 Rise Set
Actual Time 7:58 AM EDT 6:44 PM EDT
Civil Twilight 7:29 AM EDT 7:13 PM EDT
Nautical Twilight 6:57 AM EDT 7:46 PM EDT
Astronomical Twilight 6:24 AM EDT 8:18 PM EDT
Moon 6:37 AM EDT 6:11 PM EDT
Length of Visible Light 11h 43m
Length of Day
10h 46m
Tomorrow will be 2m 40s shorter.
Waning Crescent, 2% of the Moon is Illuminated
Today
Waning Crescent
Oct 23
New
Oct 30
First Quarter
Nov 6
Full
Nov 14
Last Quarter

Today's Extremes

State Highs State Lows

Community

WunderPhotos

Upload Photos

1,763,889 photos uploaded!

Nearby

Air Quality

  Air Quality AQ Index Pollutant
Yesterday Good
PM2.5
Current Good
PM2.5
Wednesday Good
PM2.5
Thursday Good
PM2.5
Friday Good
PM2.5
Saturday Good
PM2.5

Snow Depth

Station Depth Elevation
No new snow has been reported.

Earthquake Activity

City Distance Mag. Time & Date
No recent earthquake activity has been reported nearby.
Minimum magnitude displayed is 2.5.

Coastal Water Temperatures

Place Temperature
No Stations Reporting

Nearby Weather Stations